Hlavní strana
METAR-TAF:

METAR-TAF

Letiště :

Sandnessjøen, Norsko

zeměpisná šířka: 65-58N, zeměpisná délka: 012-28E, výška: 1 m

Aktuální stav počasí

Zpráva byla vytvořena před 7 hodinami a 50 minutami, v 20:20 UTC
Severoseverovýchodní vítr 4 kt
Teplota 4°C
Vlhkost vzduchu 60%
Tlak 1015 hPa
Viditelnost 10 km a více
Oblačno až skoro zataženo ve výšce 3500 ft

METAR: ENST 172020Z 03004KT 9999 BKN035 04/M03 Q1015 RMK WIND 300FT VRB02KT

Čas: 05:10 (04:10 UTC)


TAF: chybějící

Stav a předpovědi počasí z více než 4 000 letišť (zprávy METAR a TAF).

Červené a žluté tečky na mapě představují dostupné meteorologické stanice.

Když kurzor umístíte na tečku, zobrazí se název stanice.

Pak kliknutím zobrazíte stav a předpověď počasí.

Chcete-li změnit mapu, kliknutím na zelené tlačítko se znaménkem +mapu přiblížíte, kliknutím na zelené tlačítko se znaménkem – mapu oddálíte a kliknutím na zelené šipky přejdete na sousední mapy.


METAR-TAF: